Time,TemperatureF,DewpointF,PressureIn,WindDirection,WindDirectionDegrees,WindSpeedMPH,WindSpeedGustMPH,Humidity,HourlyPrecipIn,Conditions,Clouds,dailyrainin,SolarRadiationWatts/m^2,SoftwareType,DateUTC
2013-01-28 00:01:00,37.0,35.0,-100.00,NW,323,12.0,21.0,91,0.01,,,0.02,0.000000,,2013-01-28 08:01:00,
2013-01-28 00:11:00,37.0,35.0,-100.00,NW,323,12.0,21.0,91,0.01,,,0.02,0.000000,,2013-01-28 08:11:00,
2013-01-28 00:21:00,37.0,35.0,-100.00,NW,323,12.0,21.0,91,0.01,,,0.02,0.000000,,2013-01-28 08:21:00,
2013-01-28 00:31:00,37.0,35.0,-100.00,NW,323,12.0,21.0,91,0.01,,,0.02,0.000000,,2013-01-28 08:31:00,
2013-01-28 00:52:00,34.0,34.0,-100.00,North,7,1.0,26.0,98,0.10,,,0.12,0.000000,,2013-01-28 08:52:00,
2013-01-28 01:02:00,34.0,34.0,-100.00,North,7,1.0,26.0,98,0.10,,,0.12,0.000000,,2013-01-28 09:02:00,
2013-01-28 01:11:00,34.0,34.0,-100.00,North,7,1.0,26.0,98,0.10,,,0.12,0.000000,,2013-01-28 09:11:00,
2013-01-28 01:21:00,34.0,34.0,-100.00,North,7,1.0,26.0,98,0.10,,,0.12,0.000000,,2013-01-28 09:21:00,
2013-01-28 01:31:00,34.0,34.0,-100.00,North,7,1.0,26.0,98,0.10,,,0.12,0.000000,,2013-01-28 09:31:00,
2013-01-28 01:52:00,33.0,32.0,-100.00,North,354,4.0,10.0,98,0.01,,,0.12,0.000000,,2013-01-28 09:52:00,
2013-01-28 02:01:00,33.0,32.0,-100.00,North,354,4.0,10.0,98,0.01,,,0.12,0.000000,,2013-01-28 10:01:00,
2013-01-28 02:11:00,33.0,32.0,-100.00,North,354,4.0,10.0,98,0.01,,,0.12,0.000000,,2013-01-28 10:11:00,
2013-01-28 02:21:00,33.0,32.0,-100.00,North,354,4.0,10.0,98,0.01,,,0.12,0.000000,,2013-01-28 10:21:00,
2013-01-28 02:31:00,33.0,32.0,-100.00,North,354,4.0,10.0,98,0.01,,,0.12,0.000000,,2013-01-28 10:31:00,
2013-01-28 02:52:00,32.0,32.0,-100.00,East,93,0.0,6.0,98,0.00,,,0.12,0.000000,,2013-01-28 10:52:00,
2013-01-28 03:02:00,32.0,32.0,-100.00,East,93,0.0,6.0,98,0.00,,,0.12,0.000000,,2013-01-28 11:02:00,
2013-01-28 03:11:00,32.0,32.0,-100.00,East,93,0.0,6.0,98,0.00,,,0.12,0.000000,,2013-01-28 11:11:00,
2013-01-28 03:21:00,32.0,32.0,-100.00,East,93,0.0,6.0,98,0.00,,,0.12,0.000000,,2013-01-28 11:21:00,
2013-01-28 03:32:00,32.0,32.0,-100.00,East,93,0.0,6.0,98,0.00,,,0.12,0.000000,,2013-01-28 11:32:00,
2013-01-28 03:52:00,34.0,32.0,-100.00,North,1,5.0,11.0,91,0.00,,,-99.99,0.000000,,2013-01-28 11:52:00,
2013-01-28 04:03:00,34.0,32.0,-100.00,North,1,5.0,11.0,91,0.00,,,-99.99,0.000000,,2013-01-28 12:03:00,
2013-01-28 04:11:00,34.0,32.0,-100.00,North,1,5.0,11.0,91,0.00,,,-99.99,0.000000,,2013-01-28 12:11:00,
2013-01-28 04:22:00,34.0,32.0,-100.00,North,1,5.0,11.0,91,0.00,,,-99.99,0.000000,,2013-01-28 12:22:00,
2013-01-28 04:32:00,34.0,32.0,-100.00,North,1,5.0,11.0,91,0.00,,,-99.99,0.000000,,2013-01-28 12:32:00,
2013-01-28 04:52:00,36.0,32.0,-100.00,NW,309,7.0,13.0,85,0.00,,,0.12,0.000000,,2013-01-28 12:52:00,
2013-01-28 05:02:00,36.0,32.0,-100.00,NW,309,7.0,13.0,85,0.00,,,0.12,0.000000,,2013-01-28 13:02:00,
2013-01-28 05:11:00,36.0,32.0,-100.00,NW,309,7.0,13.0,85,0.00,,,0.12,0.000000,,2013-01-28 13:11:00,
2013-01-28 05:22:00,36.0,32.0,-100.00,NW,309,7.0,13.0,85,0.00,,,0.12,0.000000,,2013-01-28 13:22:00,
2013-01-28 05:32:00,36.0,32.0,-100.00,NW,309,7.0,13.0,85,0.00,,,0.12,0.000000,,2013-01-28 13:32:00,
2013-01-28 05:53:00,35.0,31.0,-100.00,West,271,1.0,12.0,84,0.00,,,0.12,0.000000,,2013-01-28 13:53:00,
2013-01-28 06:02:00,35.0,31.0,-100.00,West,271,1.0,12.0,84,0.00,,,0.12,0.000000,,2013-01-28 14:02:00,
2013-01-28 06:12:00,35.0,31.0,-100.00,West,271,1.0,12.0,84,0.00,,,0.12,0.000000,,2013-01-28 14:12:00,
2013-01-28 06:22:00,35.0,31.0,-100.00,West,271,1.0,12.0,84,0.00,,,0.12,0.000000,,2013-01-28 14:22:00,
2013-01-28 06:32:00,35.0,31.0,-100.00,West,271,1.0,12.0,84,0.00,,,0.12,0.000000,,2013-01-28 14:32:00,
2013-01-28 06:53:00,34.0,31.0,-100.00,NW,324,0.0,6.0,89,0.00,,,0.12,0.000000,,2013-01-28 14:53:00,
2013-01-28 07:03:00,34.0,31.0,-100.00,NW,324,0.0,6.0,89,0.00,,,0.12,0.000000,,2013-01-28 15:03:00,
2013-01-28 07:12:00,34.0,31.0,-100.00,NW,324,0.0,6.0,89,0.00,,,0.12,0.000000,,2013-01-28 15:12:00,
2013-01-28 07:23:00,34.0,31.0,-100.00,NW,324,0.0,6.0,89,0.00,,,0.12,0.000000,,2013-01-28 15:23:00,
2013-01-28 07:32:00,34.0,31.0,-100.00,NW,324,0.0,6.0,89,0.00,,,0.12,0.000000,,2013-01-28 15:32:00,
2013-01-28 07:53:00,33.0,29.0,-100.00,NW,314,0.0,2.0,85,0.00,,,0.12,14.000000,,2013-01-28 15:53:00,
2013-01-28 08:03:00,33.0,29.0,-100.00,NW,314,0.0,2.0,85,0.00,,,0.12,14.000000,,2013-01-28 16:03:00,
2013-01-28 08:12:00,33.0,29.0,-100.00,NW,314,0.0,2.0,85,0.00,,,0.12,14.000000,,2013-01-28 16:12:00,
2013-01-28 08:22:00,33.0,29.0,-100.00,NW,314,0.0,2.0,85,0.00,,,0.12,14.000000,,2013-01-28 16:22:00,
2013-01-28 08:32:00,33.0,29.0,-100.00,NW,314,0.0,2.0,85,0.00,,,0.12,14.000000,,2013-01-28 16:32:00,
2013-01-28 08:53:00,42.0,33.0,-100.00,NNW,335,0.0,2.0,69,0.00,,,0.12,191.000000,,2013-01-28 16:53:00,
2013-01-28 09:01:00,42.0,33.0,-100.00,NNW,335,0.0,2.0,69,0.00,,,0.12,191.000000,,2013-01-28 17:01:00,
2013-01-28 09:11:00,42.0,33.0,-100.00,NNW,335,0.0,2.0,69,0.00,,,0.12,191.000000,,2013-01-28 17:11:00,
2013-01-28 09:22:00,42.0,33.0,-100.00,NNW,335,0.0,2.0,69,0.00,,,0.12,191.000000,,2013-01-28 17:22:00,
2013-01-28 09:32:00,42.0,33.0,-100.00,NNW,335,0.0,2.0,69,0.00,,,0.12,191.000000,,2013-01-28 17:32:00,
2013-01-28 09:52:00,46.0,31.0,-100.00,WSW,255,2.0,8.0,56,0.01,,,0.13,468.000000,,2013-01-28 17:52:00,
2013-01-28 10:02:00,46.0,31.0,-100.00,WSW,255,2.0,8.0,56,0.01,,,0.13,468.000000,,2013-01-28 18:02:00,
2013-01-28 10:12:00,46.0,31.0,-100.00,WSW,255,2.0,8.0,56,0.01,,,0.13,468.000000,,2013-01-28 18:12:00,
2013-01-28 10:23:00,46.0,31.0,-100.00,WSW,255,2.0,8.0,56,0.01,,,0.13,468.000000,,2013-01-28 18:23:00,
2013-01-28 10:33:00,46.0,31.0,-100.00,WSW,255,2.0,8.0,56,0.01,,,0.13,468.000000,,2013-01-28 18:33:00,
2013-01-28 10:52:00,44.0,26.0,-100.00,NNW,328,12.0,17.0,49,0.00,,,0.13,576.000000,,2013-01-28 18:52:00,
2013-01-28 11:02:00,44.0,26.0,-100.00,NNW,328,12.0,17.0,49,0.00,,,0.13,576.000000,,2013-01-28 19:02:00,
2013-01-28 11:12:00,44.0,26.0,-100.00,NNW,328,12.0,17.0,49,0.00,,,0.13,576.000000,,2013-01-28 19:12:00,
2013-01-28 11:22:00,44.0,26.0,-100.00,NNW,328,12.0,17.0,49,0.00,,,0.13,576.000000,,2013-01-28 19:22:00,
2013-01-28 11:32:00,44.0,26.0,-100.00,NNW,328,12.0,17.0,49,0.00,,,0.13,576.000000,,2013-01-28 19:32:00,
2013-01-28 11:52:00,48.0,29.0,-100.00,NW,309,11.0,19.0,47,0.00,,,0.13,747.000000,,2013-01-28 19:52:00,
2013-01-28 12:02:00,48.0,29.0,-100.00,NW,309,11.0,19.0,47,0.00,,,0.13,747.000000,,2013-01-28 20:02:00,
2013-01-28 12:11:00,48.0,29.0,-100.00,NW,309,11.0,19.0,47,0.00,,,0.13,747.000000,,2013-01-28 20:11:00,
2013-01-28 12:21:00,48.0,29.0,-100.00,NW,309,11.0,19.0,47,0.00,,,0.13,747.000000,,2013-01-28 20:21:00,
2013-01-28 12:32:00,48.0,29.0,-100.00,NW,309,11.0,19.0,47,0.00,,,0.13,747.000000,,2013-01-28 20:32:00,
2013-01-28 12:52:00,50.0,27.0,-100.00,WNW,297,13.0,30.0,41,0.00,,,-99.99,886.000000,,2013-01-28 20:52:00,
2013-01-28 13:02:00,50.0,27.0,-100.00,WNW,297,13.0,30.0,41,0.00,,,-99.99,886.000000,,2013-01-28 21:02:00,
2013-01-28 13:11:00,50.0,27.0,-100.00,WNW,297,13.0,30.0,41,0.00,,,-99.99,886.000000,,2013-01-28 21:11:00,
2013-01-28 13:22:00,50.0,27.0,-100.00,WNW,297,13.0,30.0,41,0.00,,,-99.99,886.000000,,2013-01-28 21:22:00,
2013-01-28 13:33:00,50.0,27.0,-100.00,WNW,297,13.0,30.0,41,0.00,,,-99.99,886.000000,,2013-01-28 21:33:00,
2013-01-28 13:53:00,50.0,27.0,-100.00,NW,309,14.0,30.0,40,0.00,,,0.13,754.000000,,2013-01-28 21:53:00,
2013-01-28 14:01:00,50.0,27.0,-100.00,NW,309,14.0,30.0,40,0.00,,,0.13,754.000000,,2013-01-28 22:01:00,
2013-01-28 14:11:00,50.0,27.0,-100.00,NW,309,14.0,30.0,40,0.00,,,0.13,754.000000,,2013-01-28 22:11:00,
2013-01-28 14:22:00,50.0,27.0,-100.00,NW,309,14.0,30.0,40,0.00,,,0.13,754.000000,,2013-01-28 22:22:00,
2013-01-28 14:32:00,50.0,27.0,-100.00,NW,309,14.0,30.0,40,0.00,,,0.13,754.000000,,2013-01-28 22:32:00,
2013-01-28 14:52:00,50.0,23.0,-100.00,WNW,289,13.0,28.0,34,0.00,,,0.13,711.000000,,2013-01-28 22:52:00,
2013-01-28 15:02:00,50.0,23.0,-100.00,WNW,289,13.0,28.0,34,0.00,,,0.13,711.000000,,2013-01-28 23:02:00,
2013-01-28 15:11:00,50.0,23.0,-100.00,WNW,289,13.0,28.0,34,0.00,,,0.13,711.000000,,2013-01-28 23:11:00,
2013-01-28 15:22:00,50.0,23.0,-100.00,WNW,289,13.0,28.0,34,0.00,,,0.13,711.000000,,2013-01-28 23:22:00,
2013-01-28 15:32:00,50.0,23.0,-100.00,WNW,289,13.0,28.0,34,0.00,,,0.13,711.000000,,2013-01-28 23:32:00,
2013-01-28 16:02:00,46.0,22.0,-100.00,WNW,286,10.0,22.0,38,0.00,,,0.13,288.000000,,2013-01-29 00:02:00,
2013-01-28 16:12:00,46.0,22.0,-100.00,WNW,286,10.0,22.0,38,0.00,,,0.13,288.000000,,2013-01-29 00:12:00,
2013-01-28 16:22:00,46.0,22.0,-100.00,WNW,286,10.0,22.0,38,0.00,,,0.13,288.000000,,2013-01-29 00:22:00,
2013-01-28 16:32:00,46.0,22.0,-100.00,WNW,286,10.0,22.0,38,0.00,,,0.13,288.000000,,2013-01-29 00:32:00,
2013-01-28 16:52:00,44.0,20.0,-100.00,WNW,285,9.0,18.0,38,0.00,,,0.13,76.000000,,2013-01-29 00:52:00,
2013-01-28 17:02:00,44.0,20.0,-100.00,WNW,285,9.0,18.0,38,0.00,,,0.13,76.000000,,2013-01-29 01:02:00,
2013-01-28 17:11:00,44.0,20.0,-100.00,WNW,285,9.0,18.0,38,0.00,,,0.13,76.000000,,2013-01-29 01:11:00,
2013-01-28 17:22:00,44.0,20.0,-100.00,WNW,285,9.0,18.0,38,0.00,,,0.13,76.000000,,2013-01-29 01:22:00,
2013-01-28 17:31:00,44.0,20.0,-100.00,WNW,285,9.0,18.0,38,0.00,,,0.13,76.000000,,2013-01-29 01:31:00,
2013-01-28 17:52:00,43.0,24.0,-100.00,WNW,289,6.0,19.0,46,0.00,,,0.13,12.000000,,2013-01-29 01:52:00,
2013-01-28 18:02:00,43.0,24.0,-100.00,WNW,289,6.0,19.0,46,0.00,,,0.13,12.000000,,2013-01-29 02:02:00,
2013-01-28 18:11:00,43.0,24.0,-100.00,WNW,289,6.0,19.0,46,0.00,,,0.13,12.000000,,2013-01-29 02:11:00,
2013-01-28 18:21:00,43.0,24.0,-100.00,WNW,289,6.0,19.0,46,0.00,,,0.13,12.000000,,2013-01-29 02:21:00,
2013-01-28 18:32:00,43.0,24.0,-100.00,WNW,289,6.0,19.0,46,0.00,,,0.13,12.000000,,2013-01-29 02:32:00,
2013-01-28 19:02:00,40.0,22.0,-100.00,NW,318,8.0,16.0,49,0.00,,,0.13,0.000000,,2013-01-29 03:02:00,
2013-01-28 19:11:00,40.0,22.0,-100.00,NW,318,8.0,16.0,49,0.00,,,0.13,0.000000,,2013-01-29 03:11:00,
2013-01-28 19:21:00,40.0,22.0,-100.00,NW,318,8.0,16.0,49,0.00,,,0.13,0.000000,,2013-01-29 03:21:00,
2013-01-28 19:31:00,40.0,22.0,-100.00,NW,318,8.0,16.0,49,0.00,,,0.13,0.000000,,2013-01-29 03:31:00,
2013-01-28 19:53:00,41.0,24.0,-100.00,North,359,6.0,14.0,50,0.00,,,-99.99,0.000000,,2013-01-29 03:53:00,
2013-01-28 20:02:00,41.0,24.0,-100.00,North,359,6.0,14.0,50,0.00,,,-99.99,0.000000,,2013-01-29 04:02:00,
2013-01-28 20:11:00,41.0,24.0,-100.00,North,359,6.0,14.0,50,0.00,,,-99.99,0.000000,,2013-01-29 04:11:00,
2013-01-28 20:21:00,41.0,24.0,-100.00,North,359,6.0,14.0,50,0.00,,,-99.99,0.000000,,2013-01-29 04:21:00,
2013-01-28 20:31:00,41.0,24.0,-100.00,North,359,6.0,14.0,50,0.00,,,-99.99,0.000000,,2013-01-29 04:31:00,
2013-01-28 20:52:00,40.0,23.0,-100.00,West,273,6.0,18.0,51,0.00,,,0.13,0.000000,,2013-01-29 04:52:00,
2013-01-28 21:03:00,40.0,23.0,-100.00,West,273,6.0,18.0,51,0.00,,,0.13,0.000000,,2013-01-29 05:03:00,
2013-01-28 21:12:00,40.0,23.0,-100.00,West,273,6.0,18.0,51,0.00,,,0.13,0.000000,,2013-01-29 05:12:00,
2013-01-28 21:21:00,40.0,23.0,-100.00,West,273,6.0,18.0,51,0.00,,,0.13,0.000000,,2013-01-29 05:21:00,
2013-01-28 21:31:00,40.0,23.0,-100.00,West,273,6.0,18.0,51,0.00,,,0.13,0.000000,,2013-01-29 05:31:00,
2013-01-28 21:52:00,36.0,21.0,-100.00,NW,322,0.0,16.0,53,0.00,,,0.13,0.000000,,2013-01-29 05:52:00,
2013-01-28 22:01:00,36.0,21.0,-100.00,NW,322,0.0,16.0,53,0.00,,,0.13,0.000000,,2013-01-29 06:01:00,
2013-01-28 22:11:00,36.0,21.0,-100.00,NW,322,0.0,16.0,53,0.00,,,0.13,0.000000,,2013-01-29 06:11:00,
2013-01-28 22:21:00,36.0,21.0,-100.00,NW,322,0.0,16.0,53,0.00,,,0.13,0.000000,,2013-01-29 06:21:00,
2013-01-28 22:31:00,36.0,21.0,-100.00,NW,322,0.0,16.0,53,0.00,,,0.13,0.000000,,2013-01-29 06:31:00,
2013-01-28 22:52:00,35.0,20.0,-100.00,NE,51,4.0,12.0,55,0.00,,,0.13,0.000000,,2013-01-29 06:52:00,
2013-01-28 23:01:00,35.0,20.0,-100.00,NE,51,4.0,12.0,55,0.00,,,0.13,0.000000,,2013-01-29 07:01:00,
2013-01-28 23:11:00,35.0,20.0,-100.00,NE,51,4.0,12.0,55,0.00,,,0.13,0.000000,,2013-01-29 07:11:00,
2013-01-28 23:21:00,35.0,20.0,-100.00,NE,51,4.0,12.0,55,0.00,,,0.13,0.000000,,2013-01-29 07:21:00,
2013-01-28 23:31:00,35.0,20.0,-100.00,NE,51,4.0,12.0,55,0.00,,,0.13,0.000000,,2013-01-29 07:31:00,
2013-01-28 23:52:00,34.0,20.0,-100.00,ENE,77,1.0,10.0,56,0.00,,,0.12,0.000000,,2013-01-29 07:52:00,